Time;durP1;ratioP1;P1;durP2;ratioP2;P2;SDS_P1;SDS_P2;PMS_P1;PMS_P2;Temp;Humidity;BMP_temperature;BMP_pressure;BME280_temperature;BME280_humidity;BME280_pressure;Samples;Min_cycle;Max_cycle;Signal;HPM_P1;HPM_P2
2021/05/21 00:02:45;;;;;;;;;;;12.20;99.90;;;;;;10576439;28;19934;-64
2021/05/21 00:07:47;;;;;;;;;;;12.00;99.90;;;;;;10584110;28;19934;-63
2021/05/21 00:12:48;;;;;;;;;;;11.70;99.90;;;;;;10583802;28;19927;-64
2021/05/21 00:17:49;;;;;;;;;;;11.50;99.90;;;;;;10583843;28;20006;-63
2021/05/21 00:22:51;;;;;;;;;;;11.30;99.90;;;;;;10583029;28;19990;-64
2021/05/21 00:27:52;;;;;;;;;;;11.20;99.90;;;;;;10583523;28;20386;-64
2021/05/21 00:32:53;;;;;;;;;;;11.10;99.90;;;;;;10583336;28;20001;-63
2021/05/21 00:37:55;;;;;;;;;;;11.00;99.90;;;;;;10583012;28;19998;-64
2021/05/21 00:42:56;;;;;;;;;;;11.00;99.90;;;;;;10582263;28;19923;-64
2021/05/21 00:47:57;;;;;;;;;;;11.00;99.90;;;;;;10582196;28;19932;-64
2021/05/21 00:53:00;;;;;;;;;;;11.00;99.90;;;;;;10582451;28;20486;-63
2021/05/21 00:58:01;;;;;;;;;;;11.00;99.90;;;;;;10582223;28;19924;-63
2021/05/21 01:03:02;;;;;;;;;;;10.80;99.90;;;;;;10581899;28;19930;-63
2021/05/21 01:08:05;;;;;;;;;;;10.70;99.90;;;;;;10581240;28;19934;-63
2021/05/21 01:13:06;;;;;;;;;;;10.60;99.90;;;;;;10581173;28;20023;-63
2021/05/21 01:18:08;;;;;;;;;;;10.60;99.90;;;;;;10581383;28;19927;-63
2021/05/21 01:23:10;;;;;;;;;;;10.60;99.90;;;;;;10580711;28;19927;-63
2021/05/21 01:28:14;;;;;;;;;;;10.70;99.90;;;;;;10578207;28;20329;-63
2021/05/21 01:33:15;;;;;;;;;;;10.70;99.90;;;;;;10581638;28;20563;-63
2021/05/21 01:38:17;;;;;;;;;;;10.60;99.90;;;;;;10581572;28;19959;-63
2021/05/21 01:43:18;;;;;;;;;;;10.60;99.90;;;;;;10580675;28;19923;-63
2021/05/21 01:48:19;;;;;;;;;;;10.50;99.90;;;;;;10581242;28;20007;-62
2021/05/21 01:53:23;;;;;;;;;;;10.40;99.90;;;;;;10580978;28;19970;-62
2021/05/21 01:58:24;;;;;;;;;;;10.40;99.90;;;;;;10580966;28;19924;-63
2021/05/21 02:03:27;;;;;;;;;;;10.50;99.90;;;;;;10580842;28;19924;-63
2021/05/21 02:08:29;;;;;;;;;;;10.60;99.90;;;;;;10580600;28;19939;-62
2021/05/21 02:13:30;;;;;;;;;;;10.80;99.90;;;;;;10579734;28;20331;-62
2021/05/21 02:18:31;;;;;;;;;;;10.70;99.90;;;;;;10580161;28;19968;-62
2021/05/21 02:23:33;;;;;;;;;;;10.80;99.90;;;;;;10580025;28;19970;-63
2021/05/21 02:28:34;;;;;;;;;;;10.80;99.90;;;;;;10579130;28;19930;-62
2021/05/21 02:33:35;;;;;;;;;;;10.80;99.90;;;;;;10579533;28;19924;-62
2021/05/21 02:38:37;;;;;;;;;;;10.70;99.90;;;;;;10579427;28;20439;-62
2021/05/21 02:43:38;;;;;;;;;;;10.60;99.90;;;;;;10579390;28;19932;-63
2021/05/21 02:48:39;;;;;;;;;;;10.70;99.90;;;;;;10579450;28;19924;-62
2021/05/21 02:53:41;;;;;;;;;;;10.70;99.90;;;;;;10578670;28;20265;-63
2021/05/21 02:58:42;;;;;;;;;;;10.70;99.70;;;;;;10579378;28;20332;-62
2021/05/21 03:03:44;;;;;;;;;;;10.60;99.90;;;;;;10579072;28;19924;-62
2021/05/21 03:08:45;;;;;;;;;;;10.60;99.90;;;;;;10578461;28;19923;-63
2021/05/21 03:13:47;;;;;;;;;;;10.70;99.90;;;;;;10578426;28;19930;-62
2021/05/21 03:18:48;;;;;;;;;;;10.80;99.90;;;;;;10578551;28;19988;-63
2021/05/21 03:23:50;;;;;;;;;;;10.90;99.90;;;;;;10578466;28;19923;-63
2021/05/21 03:28:51;;;;;;;;;;;11.00;99.90;;;;;;10577859;28;20417;-63
2021/05/21 03:33:52;;;;;;;;;;;10.90;99.90;;;;;;10578520;28;19930;-63
2021/05/21 03:38:54;;;;;;;;;;;10.90;99.90;;;;;;10580515;28;20019;-63
2021/05/21 03:43:55;;;;;;;;;;;11.00;99.90;;;;;;10586066;28;19930;-63
2021/05/21 03:48:57;;;;;;;;;;;11.00;99.90;;;;;;10586083;28;20014;-63
2021/05/21 03:53:59;;;;;;;;;;;11.10;99.90;;;;;;10585882;28;19977;-63
2021/05/21 03:59:00;;;;;;;;;;;11.20;99.90;;;;;;10585745;28;19924;-63
2021/05/21 04:04:02;;;;;;;;;;;11.20;99.90;;;;;;10584907;28;20398;-63
2021/05/21 04:09:06;;;;;;;;;;;11.20;99.90;;;;;;10585330;28;20004;-63
2021/05/21 04:14:07;;;;;;;;;;;11.20;99.90;;;;;;10585177;28;19924;-63
2021/05/21 04:19:08;;;;;;;;;;;11.30;99.90;;;;;;10585002;28;19932;-64
2021/05/21 04:24:11;;;;;;;;;;;11.40;99.90;;;;;;10584906;28;19928;-63
2021/05/21 04:29:12;;;;;;;;;;;11.70;99.90;;;;;;10584180;28;20286;-63
2021/05/21 04:34:13;;;;;;;;;;;11.60;99.90;;;;;;10584347;28;20014;-63
2021/05/21 04:39:15;;;;;;;;;;;11.30;99.90;;;;;;10583984;28;19923;-64
2021/05/21 04:44:16;;;;;;;;;;;11.00;99.90;;;;;;10583887;28;20007;-63
2021/05/21 04:54:34;;;;;;;;;;;10.80;99.90;;;;;;10582587;28;19980;-63
2021/05/21 04:59:35;;;;;;;;;;;11.00;99.90;;;;;;10581157;28;20002;-63
2021/05/21 05:04:36;;;;;;;;;;;11.10;99.90;;;;;;10582267;28;19946;-63
2021/05/21 05:09:38;;;;;;;;;;;11.20;99.90;;;;;;10580483;28;19924;-64
2021/05/21 05:14:39;;;;;;;;;;;11.40;99.90;;;;;;10580357;28;19924;-64
2021/05/21 05:19:40;;;;;;;;;;;11.60;99.90;;;;;;10580252;28;20008;-63
2021/05/21 05:24:42;;;;;;;;;;;11.60;99.90;;;;;;10579258;28;19930;-64
2021/05/21 05:29:45;;;;;;;;;;;11.80;99.90;;;;;;10578439;28;19928;-64
2021/05/21 05:34:46;;;;;;;;;;;12.00;98.90;;;;;;10577880;28;19923;-63
2021/05/21 05:39:48;;;;;;;;;;;13.10;95.60;;;;;;10578260;28;20027;-64
2021/05/21 05:44:49;;;;;;;;;;;12.50;95.50;;;;;;10578095;28;20379;-64
2021/05/21 05:49:50;;;;;;;;;;;12.40;95.80;;;;;;10577593;28;20424;-64
2021/05/21 05:54:52;;;;;;;;;;;12.70;94.80;;;;;;10578078;28;19955;-64
2021/05/21 05:59:53;;;;;;;;;;;11.80;93.40;;;;;;10577275;28;20377;-64
2021/05/21 06:04:56;;;;;;;;;;;13.60;92.40;;;;;;10577061;28;19959;-65
2021/05/21 06:09:58;;;;;;;;;;;14.60;90.10;;;;;;10577650;28;19924;-64
2021/05/21 06:14:59;;;;;;;;;;;15.80;82.00;;;;;;10575239;28;20288;-63
2021/05/21 06:20:01;;;;;;;;;;;16.80;76.60;;;;;;10574277;28;20022;-63
2021/05/21 06:25:07;;;;;;;;;;;19.50;63.40;;;;;;10574510;28;19946;-64
2021/05/21 06:30:11;;;;;;;;;;;22.70;48.80;;;;;;10575437;28;19973;-64
2021/05/21 06:35:12;;;;;;;;;;;23.50;44.50;;;;;;10577112;28;19927;-64
2021/05/21 06:40:15;;;;;;;;;;;20.40;51.10;;;;;;10576309;28;19935;-63
2021/05/21 06:45:16;;;;;;;;;;;17.90;59.60;;;;;;10577036;28;19924;-63
2021/05/21 06:50:17;;;;;;;;;;;16.70;64.20;;;;;;10576722;28;20041;-64
2021/05/21 06:55:19;;;;;;;;;;;15.60;71.50;;;;;;10574940;28;19934;-64
2021/05/21 07:00:20;;;;;;;;;;;14.80;79.80;;;;;;10574758;28;19930;-63
2021/05/21 07:05:21;;;;;;;;;;;14.40;84.90;;;;;;10574621;28;19930;-64
2021/05/21 07:10:23;;;;;;;;;;;14.30;86.90;;;;;;10576465;28;19951;-64
2021/05/21 07:15:24;;;;;;;;;;;15.00;84.40;;;;;;10583113;28;19938;-63
2021/05/21 07:20:25;;;;;;;;;;;16.60;74.40;;;;;;10584345;28;19932;-63
2021/05/21 07:25:28;;;;;;;;;;;16.30;76.60;;;;;;10584537;28;20007;-64
2021/05/21 07:30:29;;;;;;;;;;;17.60;71.60;;;;;;10584012;28;19924;-64
2021/05/21 07:35:31;;;;;;;;;;;17.00;71.50;;;;;;10584061;28;19934;-65
2021/05/21 07:40:33;;;;;;;;;;;15.20;87.50;;;;;;10583779;28;19928;-64
2021/05/21 07:45:34;;;;;;;;;;;14.30;93.10;;;;;;10584144;28;19924;-64
2021/05/21 07:50:38;;;;;;;;;;;14.00;93.10;;;;;;10583577;28;20505;-65
2021/05/21 07:55:40;;;;;;;;;;;13.20;95.30;;;;;;10583350;28;20014;-64
2021/05/21 08:00:41;;;;;;;;;;;13.00;96.60;;;;;;10583439;28;19930;-64
2021/05/21 08:05:43;;;;;;;;;;;12.90;96.60;;;;;;10583190;28;19939;-64
2021/05/21 08:10:45;;;;;;;;;;;13.80;94.90;;;;;;10582620;28;19927;-64
2021/05/21 08:15:46;;;;;;;;;;;14.40;93.40;;;;;;10582159;28;20394;-64
2021/05/21 08:20:49;;;;;;;;;;;14.20;92.70;;;;;;10581592;28;20511;-61
2021/05/21 08:25:51;;;;;;;;;;;13.80;93.80;;;;;;10581399;28;20354;-61
2021/05/21 08:30:52;;;;;;;;;;;13.10;96.80;;;;;;10582092;28;19963;-62
2021/05/21 08:35:53;;;;;;;;;;;13.10;97.50;;;;;;10581096;28;20261;-60
2021/05/21 08:40:57;;;;;;;;;;;12.90;98.30;;;;;;10580921;28;19931;-62
2021/05/21 08:45:58;;;;;;;;;;;12.50;99.90;;;;;;10580709;28;20338;-61
2021/05/21 08:50:59;;;;;;;;;;;14.70;99.20;;;;;;10580456;28;20452;-61
2021/05/21 08:56:01;;;;;;;;;;;16.90;93.70;;;;;;10579809;28;19928;-61
2021/05/21 09:01:02;;;;;;;;;;;16.10;90.60;;;;;;10579964;28;19924;-60
2021/05/21 09:06:15;;;;;;;;;;;16.00;92.20;;;;;;10568123;28;19930;-62
2021/05/21 09:11:24;;;;;;;;;;;18.10;85.90;;;;;;10578291;28;19927;-62
2021/05/21 09:16:26;;;;;;;;;;;18.30;78.80;;;;;;10580656;28;19952;-62
2021/05/21 09:21:44;;;;;;;;;;;17.00;78.70;;;;;;10580588;28;19971;-61
2021/05/21 09:26:47;;;;;;;;;;;15.90;83.70;;;;;;10579925;28;19924;-61
2021/05/21 09:31:49;;;;;;;;;;;17.20;79.40;;;;;;10579854;28;19984;-61
2021/05/21 09:36:52;;;;;;;;;;;17.40;72.50;;;;;;10578432;28;19971;-60
2021/05/21 09:41:55;;;;;;;;;;;17.40;70.50;;;;;;10577977;28;19934;-60
2021/05/21 09:46:57;;;;;;;;;;;16.40;73.60;;;;;;10577365;28;19993;-60
2021/05/21 09:51:59;;;;;;;;;;;17.00;72.70;;;;;;10577887;28;19939;-62
2021/05/21 09:57:01;;;;;;;;;;;17.70;66.70;;;;;;10577179;28;20033;-61
2021/05/21 10:02:17;;;;;;;;;;;18.40;61.30;;;;;;10577455;28;19945;-60
2021/05/21 10:07:18;;;;;;;;;;;17.20;59.10;;;;;;10575899;28;19927;-59
2021/05/21 10:12:20;;;;;;;;;;;16.40;62.00;;;;;;10575654;28;20014;-60
2021/05/21 10:17:23;;;;;;;;;;;17.80;57.30;;;;;;10575621;28;19930;-60
2021/05/21 10:22:26;;;;;;;;;;;17.90;55.70;;;;;;10575602;28;19959;-60
2021/05/21 10:27:30;;;;;;;;;;;17.90;59.40;;;;;;10574567;28;19928;-60
2021/05/21 10:32:32;;;;;;;;;;;19.40;57.30;;;;;;10574807;28;19930;-60
2021/05/21 10:37:35;;;;;;;;;;;18.90;57.00;;;;;;10574439;28;19934;-62
2021/05/21 10:42:38;;;;;;;;;;;17.90;61.00;;;;;;10573133;28;19969;-61
2021/05/21 10:47:40;;;;;;;;;;;17.80;62.80;;;;;;10573916;28;20445;-60
2021/05/21 10:52:55;;;;;;;;;;;18.10;58.90;;;;;;10574215;28;19923;-61
2021/05/21 10:58:00;;;;;;;;;;;18.20;56.70;;;;;;10573363;28;19924;-61
2021/05/21 11:03:01;;;;;;;;;;;18.50;56.00;;;;;;10574633;28;20034;-60
2021/05/21 11:08:03;;;;;;;;;;;18.80;56.60;;;;;;10574778;28;20645;-61
2021/05/21 11:13:10;;;;;;;;;;;19.50;52.80;;;;;;10575289;28;19924;-61
2021/05/21 11:18:12;;;;;;;;;;;19.20;55.00;;;;;;10575268;28;19924;-60
2021/05/21 11:23:14;;;;;;;;;;;19.30;53.20;;;;;;10574581;28;19930;-59
2021/05/21 11:28:16;;;;;;;;;;;19.20;51.40;;;;;;10575256;28;19924;-60
2021/05/21 11:33:19;;;;;;;;;;;19.90;49.20;;;;;;10575133;28;19924;-60
2021/05/21 11:38:24;;;;;;;;;;;19.70;47.30;;;;;;10574945;28;19938;-60
2021/05/21 11:43:27;;;;;;;;;;;19.30;48.10;;;;;;10572453;28;19931;-60
2021/05/21 11:48:31;;;;;;;;;;;19.00;48.20;;;;;;10572898;28;19934;-60
2021/05/21 11:53:32;;;;;;;;;;;18.80;49.60;;;;;;10571958;28;20331;-61
2021/05/21 11:58:37;;;;;;;;;;;19.00;51.10;;;;;;10572163;28;19928;-61
2021/05/21 12:03:39;;;;;;;;;;;18.80;54.00;;;;;;10580958;28;19924;-61
2021/05/21 12:08:44;;;;;;;;;;;18.70;54.00;;;;;;10581279;28;20389;-61
2021/05/21 12:13:46;;;;;;;;;;;18.30;56.60;;;;;;10579901;28;19924;-60
2021/05/21 12:18:48;;;;;;;;;;;17.70;57.40;;;;;;10579789;28;19934;-60
2021/05/21 12:23:51;;;;;;;;;;;17.40;57.80;;;;;;10579650;28;19936;-60
2021/05/21 12:28:54;;;;;;;;;;;17.30;58.60;;;;;;10579356;28;20012;-62
2021/05/21 12:33:56;;;;;;;;;;;17.70;57.20;;;;;;10579474;28;19934;-60
2021/05/21 12:38:58;;;;;;;;;;;17.80;58.60;;;;;;10578267;28;19927;-61
2021/05/21 12:44:10;;;;;;;;;;;18.10;58.50;;;;;;10579121;28;19935;-61
2021/05/21 12:49:11;;;;;;;;;;;17.60;58.20;;;;;;10580228;28;20402;-60
2021/05/21 12:54:18;;;;;;;;;;;17.30;60.30;;;;;;10579715;28;19954;-61
2021/05/21 12:59:20;;;;;;;;;;;17.60;58.50;;;;;;10579022;28;19963;-62
2021/05/21 13:04:21;;;;;;;;;;;17.70;57.50;;;;;;10578225;28;19934;-60
2021/05/21 13:09:22;;;;;;;;;;;17.50;58.80;;;;;;10578294;28;19923;-61
2021/05/21 13:14:25;;;;;;;;;;;17.70;59.50;;;;;;10577104;28;19929;-62
2021/05/21 13:19:28;;;;;;;;;;;17.80;58.30;;;;;;10577534;28;19930;-61
2021/05/21 13:24:30;;;;;;;;;;;18.10;58.40;;;;;;10578800;28;19959;-61
2021/05/21 13:29:32;;;;;;;;;;;18.10;55.00;;;;;;10577730;28;19924;-61
2021/05/21 13:34:33;;;;;;;;;;;18.00;55.70;;;;;;10578021;28;19927;-60
2021/05/21 13:39:34;;;;;;;;;;;17.80;56.30;;;;;;10577747;28;20287;-62
2021/05/21 13:44:37;;;;;;;;;;;17.70;57.50;;;;;;10577524;28;19924;-61
2021/05/21 13:49:38;;;;;;;;;;;17.70;55.10;;;;;;10578955;28;20615;-61
2021/05/21 13:54:39;;;;;;;;;;;18.10;54.00;;;;;;10578062;28;19938;-60
2021/05/21 13:59:41;;;;;;;;;;;17.80;55.50;;;;;;10577987;28;20014;-60
2021/05/21 14:04:42;;;;;;;;;;;17.80;56.10;;;;;;10576492;28;19928;-60
2021/05/21 14:09:43;;;;;;;;;;;17.80;59.80;;;;;;10576554;28;19980;-61
2021/05/21 14:14:45;;;;;;;;;;;17.50;61.70;;;;;;10577920;28;19968;-60
2021/05/21 14:19:47;;;;;;;;;;;17.70;62.90;;;;;;10578134;28;19924;-60
2021/05/21 14:24:49;;;;;;;;;;;17.50;61.70;;;;;;10576955;28;19924;-60
2021/05/21 14:29:51;;;;;;;;;;;17.50;62.70;;;;;;10577682;28;19936;-60
2021/05/21 14:34:52;;;;;;;;;;;17.80;58.90;;;;;;10577950;28;19924;-60
2021/05/21 14:39:53;;;;;;;;;;;18.10;56.70;;;;;;10576952;28;19927;-60
2021/05/21 14:44:55;;;;;;;;;;;18.40;56.70;;;;;;10577566;28;19927;-60
2021/05/21 14:49:57;;;;;;;;;;;18.70;54.70;;;;;;10575367;28;21332;-60
2021/05/21 14:54:59;;;;;;;;;;;18.70;54.80;;;;;;10577048;28;20383;-60
2021/05/21 15:00:00;;;;;;;;;;;18.90;51.60;;;;;;10575839;28;19971;-61
2021/05/21 15:05:04;;;;;;;;;;;18.90;52.10;;;;;;10572331;28;20398;-60
2021/05/21 15:10:06;;;;;;;;;;;18.80;51.20;;;;;;10575313;28;19931;-61
2021/05/21 15:15:12;;;;;;;;;;;18.50;50.20;;;;;;10575065;28;20040;-60
2021/05/21 15:25:33;;;;;;;;;;;17.60;52.90;;;;;;10576097;28;19927;-60
2021/05/21 15:30:45;;;;;;;;;;;17.60;53.80;;;;;;10576046;28;20356;-60
2021/05/21 15:35:46;;;;;;;;;;;17.40;55.00;;;;;;10579013;28;19924;-61
2021/05/21 15:40:49;;;;;;;;;;;17.40;53.90;;;;;;10585502;28;19928;-61
2021/05/21 15:45:57;;;;;;;;;;;17.50;56.00;;;;;;10586106;28;20763;-59
2021/05/21 15:51:04;;;;;;;;;;;17.40;54.00;;;;;;10584176;28;19996;-59
2021/05/21 15:56:27;;;;;;;;;;;17.30;55.20;;;;;;10583552;28;20444;-59
2021/05/21 16:01:29;;;;;;;;;;;17.20;55.80;;;;;;10583613;28;19935;-61
2021/05/21 16:06:31;;;;;;;;;;;17.10;55.50;;;;;;10583549;28;20010;-61
2021/05/21 16:11:34;;;;;;;;;;;17.00;54.70;;;;;;10583031;28;19924;-61
2021/05/21 16:16:37;;;;;;;;;;;16.90;56.00;;;;;;10583058;28;20370;-61
2021/05/21 16:21:38;;;;;;;;;;;16.70;55.80;;;;;;10582825;28;19927;-61
2021/05/21 16:26:39;;;;;;;;;;;16.40;58.60;;;;;;10582365;28;19996;-60
2021/05/21 16:31:41;;;;;;;;;;;16.10;59.00;;;;;;10582431;28;19935;-60
2021/05/21 16:36:45;;;;;;;;;;;15.60;61.10;;;;;;10581633;28;20290;-60
2021/05/21 16:41:46;;;;;;;;;;;15.20;63.20;;;;;;10581107;28;20360;-60
2021/05/21 16:46:48;;;;;;;;;;;15.00;64.00;;;;;;10581192;28;20014;-60
2021/05/21 16:51:49;;;;;;;;;;;15.10;66.60;;;;;;10580715;28;19925;-61
2021/05/21 16:56:50;;;;;;;;;;;15.20;66.00;;;;;;10580742;28;19928;-60
2021/05/21 17:01:52;;;;;;;;;;;15.00;67.00;;;;;;10582036;28;20006;-59
2021/05/21 17:06:53;;;;;;;;;;;14.80;68.80;;;;;;10580778;28;20015;-60
2021/05/21 17:11:55;;;;;;;;;;;14.60;70.80;;;;;;10580928;28;19928;-59
2021/05/21 17:26:05;;;;;;;;;;;14.50;70.40;;;;;;10579613;28;20322;-59
2021/05/21 17:28:10;;;;;;;;;;;14.40;71.90;;;;;;10579123;28;19924;-59
2021/05/21 17:39:02;;;;;;;;;;;14.40;75.10;;;;;;10577462;28;19927;-59
2021/05/21 17:44:07;;;;;;;;;;;14.40;75.30;;;;;;10577761;28;20010;-61
2021/05/21 17:49:39;;;;;;;;;;;14.30;75.40;;;;;;10577747;28;20555;-60
2021/05/21 17:54:46;;;;;;;;;;;14.30;75.00;;;;;;10577585;28;19933;-61
2021/05/21 18:00:04;;;;;;;;;;;14.20;75.80;;;;;;10576408;28;19928;-60
2021/05/21 18:05:44;;;;;;;;;;;14.20;77.50;;;;;;10577072;28;19928;-59
2021/05/21 18:11:07;;;;;;;;;;;14.10;79.00;;;;;;10576464;28;20330;-62
2021/05/21 18:16:24;;;;;;;;;;;14.00;79.30;;;;;;10575867;28;20026;-60
2021/05/21 18:53:48;;;;;;;;;;;13.40;83.70;;;;;;10572477;28;19941;-60
2021/05/21 19:04:09;;;;;;;;;;;13.20;83.10;;;;;;10574739;28;19927;-60
2021/05/21 19:09:16;;;;;;;;;;;13.20;84.50;;;;;;10578194;28;19931;-61
2021/05/21 19:14:33;;;;;;;;;;;13.10;85.00;;;;;;10584360;28;19927;-61
2021/05/21 19:19:38;;;;;;;;;;;13.00;85.80;;;;;;10584086;28;20015;-61
2021/05/21 19:24:40;;;;;;;;;;;13.40;87.40;;;;;;10583362;28;20406;-62
2021/05/21 19:29:47;;;;;;;;;;;12.90;87.80;;;;;;10583642;28;19938;-60
2021/05/21 19:40:19;;;;;;;;;;;12.90;87.80;;;;;;10582669;28;19924;-60
2021/05/21 20:12:14;;;;;;;;;;;12.50;90.50;;;;;;10409496;28;20043;-62
2021/05/21 20:17:17;;;;;;;;;;;12.50;90.90;;;;;;10539936;28;19927;-62
2021/05/21 20:22:19;;;;;;;;;;;12.40;90.20;;;;;;10579492;28;19928;-60
2021/05/21 20:27:24;;;;;;;;;;;12.40;90.30;;;;;;10580396;28;19928;-62
2021/05/21 20:32:37;;;;;;;;;;;12.40;90.80;;;;;;10579925;28;19960;-61
2021/05/21 20:37:57;;;;;;;;;;;12.40;91.00;;;;;;10580218;28;19974;-60
2021/05/21 20:43:14;;;;;;;;;;;12.40;91.00;;;;;;10580049;28;19924;-60
2021/05/21 21:04:37;;;;;;;;;;;12.30;91.90;;;;;;10580931;28;19927;-61
2021/05/21 21:09:42;;;;;;;;;;;12.30;91.70;;;;;;10577848;28;20580;-61
2021/05/21 21:20:20;;;;;;;;;;;12.30;91.10;;;;;;10574814;28;19967;-61
2021/05/21 21:25:49;;;;;;;;;;;12.30;91.70;;;;;;10578950;28;19923;-60
2021/05/21 21:31:08;;;;;;;;;;;12.30;91.80;;;;;;10578838;28;19931;-60
2021/05/21 21:37:01;;;;;;;;;;;12.30;91.70;;;;;;10577752;28;20279;-60
2021/05/21 21:48:23;;;;;;;;;;;12.20;91.70;;;;;;10576012;28;19924;-60
2021/05/21 21:53:30;;;;;;;;;;;12.20;92.10;;;;;;10577079;28;19928;-61
2021/05/21 21:58:34;;;;;;;;;;;12.30;92.40;;;;;;10577415;28;19927;-61
2021/05/21 22:03:41;;;;;;;;;;;12.30;92.90;;;;;;10577374;28;20026;-61
2021/05/21 22:08:52;;;;;;;;;;;12.20;93.00;;;;;;10577114;28;19988;-60
2021/05/21 22:14:02;;;;;;;;;;;12.20;93.10;;;;;;10576747;28;19934;-61
2021/05/21 22:19:08;;;;;;;;;;;12.20;93.30;;;;;;10576191;28;19981;-61
2021/05/21 22:24:12;;;;;;;;;;;12.10;94.10;;;;;;10576909;28;19928;-60
2021/05/21 22:29:13;;;;;;;;;;;12.00;94.50;;;;;;10576348;28;19928;-60
2021/05/21 22:34:15;;;;;;;;;;;12.00;94.30;;;;;;10575488;28;20282;-60
2021/05/21 22:39:16;;;;;;;;;;;12.00;94.10;;;;;;10575768;28;19930;-60
2021/05/21 22:44:18;;;;;;;;;;;12.00;94.40;;;;;;10575370;28;19934;-61
2021/05/21 22:49:24;;;;;;;;;;;12.00;94.70;;;;;;10575903;28;19931;-60
2021/05/21 22:54:26;;;;;;;;;;;11.90;94.70;;;;;;10575439;28;20023;-61
2021/05/21 22:59:27;;;;;;;;;;;11.90;94.40;;;;;;10574547;28;20045;-59
2021/05/21 23:04:29;;;;;;;;;;;11.90;94.60;;;;;;10577363;28;19931;-59
2021/05/21 23:09:32;;;;;;;;;;;11.80;95.50;;;;;;10576443;28;20385;-59
2021/05/21 23:14:33;;;;;;;;;;;11.70;96.40;;;;;;10575111;28;19982;-62
2021/05/21 23:19:35;;;;;;;;;;;11.50;96.90;;;;;;10574553;28;19975;-61
2021/05/21 23:24:36;;;;;;;;;;;11.50;97.10;;;;;;10575414;28;19982;-61
2021/05/21 23:29:37;;;;;;;;;;;11.50;97.30;;;;;;10575004;28;19934;-61
2021/05/21 23:34:39;;;;;;;;;;;11.40;97.80;;;;;;10575121;28;19923;-61
2021/05/21 23:39:40;;;;;;;;;;;11.30;98.30;;;;;;10574648;28;19928;-61
2021/05/21 23:44:41;;;;;;;;;;;11.20;99.30;;;;;;10574563;28;20034;-60
2021/05/21 23:49:43;;;;;;;;;;;11.10;99.90;;;;;;10573980;28;19996;-61
2021/05/21 23:54:45;;;;;;;;;;;10.90;99.90;;;;;;10576560;28;19924;-60
2021/05/21 23:59:46;;;;;;;;;;;10.80;99.90;;;;;;10582393;28;19923;-60
